sensor_id;sensor_type;location;lat;lon;timestamp;temperature;humidity
15906;DHT22;8051;50.820;4.884;2023-05-14T00:01:35;13.30;99.90
15906;DHT22;8051;50.820;4.884;2023-05-14T00:04:04;13.30;99.90
15906;DHT22;8051;50.820;4.884;2023-05-14T00:06:33;13.30;99.90
15906;DHT22;8051;50.820;4.884;2023-05-14T00:09:00;13.20;99.90
15906;DHT22;8051;50.820;4.884;2023-05-14T00:11:29;13.20;99.90
15906;DHT22;8051;50.820;4.884;2023-05-14T00:13:56;13.20;99.90
15906;DHT22;8051;50.820;4.884;2023-05-14T00:16:24;13.20;99.90
15906;DHT22;8051;50.820;4.884;2023-05-14T00:18:51;13.10;99.90
15906;DHT22;8051;50.820;4.884;2023-05-14T00:21:19;13.10;99.90
15906;DHT22;8051;50.820;4.884;2023-05-14T00:23:48;13.00;99.90
15906;DHT22;8051;50.820;4.884;2023-05-14T00:26:15;13.00;99.90
15906;DHT22;8051;50.820;4.884;2023-05-14T00:28:43;12.90;99.90
15906;DHT22;8051;50.820;4.884;2023-05-14T00:31:10;12.90;99.90
15906;DHT22;8051;50.820;4.884;2023-05-14T00:33:38;12.90;99.90
15906;DHT22;8051;50.820;4.884;2023-05-14T00:36:06;12.90;99.90
15906;DHT22;8051;50.820;4.884;2023-05-14T00:38:34;12.80;99.90
15906;DHT22;8051;50.820;4.884;2023-05-14T00:41:03;12.90;99.90
15906;DHT22;8051;50.820;4.884;2023-05-14T00:43:30;12.90;99.90
15906;DHT22;8051;50.820;4.884;2023-05-14T00:45:59;12.80;99.90
15906;DHT22;8051;50.820;4.884;2023-05-14T00:48:26;12.80;99.90
15906;DHT22;8051;50.820;4.884;2023-05-14T00:50:53;12.80;99.90
15906;DHT22;8051;50.820;4.884;2023-05-14T00:53:21;12.70;99.90
15906;DHT22;8051;50.820;4.884;2023-05-14T00:55:49;12.60;99.90
15906;DHT22;8051;50.820;4.884;2023-05-14T00:58:18;12.60;99.90
15906;DHT22;8051;50.820;4.884;2023-05-14T01:00:45;12.60;99.90
15906;DHT22;8051;50.820;4.884;2023-05-14T01:03:13;12.50;99.90
15906;DHT22;8051;50.820;4.884;2023-05-14T01:05:46;12.40;99.90
15906;DHT22;8051;50.820;4.884;2023-05-14T01:08:24;12.30;99.90
15906;DHT22;8051;50.820;4.884;2023-05-14T01:10:59;12.40;99.90
15906;DHT22;8051;50.820;4.884;2023-05-14T01:13:40;12.30;99.90
15906;DHT22;8051;50.820;4.884;2023-05-14T01:16:12;12.30;99.90
15906;DHT22;8051;50.820;4.884;2023-05-14T01:18:40;12.20;99.90
15906;DHT22;8051;50.820;4.884;2023-05-14T01:21:26;12.10;99.90
15906;DHT22;8051;50.820;4.884;2023-05-14T01:23:59;12.10;99.90
15906;DHT22;8051;50.820;4.884;2023-05-14T01:26:26;12.00;99.90
15906;DHT22;8051;50.820;4.884;2023-05-14T01:29:00;12.00;99.90
15906;DHT22;8051;50.820;4.884;2023-05-14T01:31:30;11.90;99.90
15906;DHT22;8051;50.820;4.884;2023-05-14T01:34:00;11.90;99.90
15906;DHT22;8051;50.820;4.884;2023-05-14T01:36:30;11.80;99.90
15906;DHT22;8051;50.820;4.884;2023-05-14T01:38:58;11.80;99.90
15906;DHT22;8051;50.820;4.884;2023-05-14T01:41:27;11.80;99.90
15906;DHT22;8051;50.820;4.884;2023-05-14T01:43:56;11.80;99.90
15906;DHT22;8051;50.820;4.884;2023-05-14T01:46:24;11.80;99.90
15906;DHT22;8051;50.820;4.884;2023-05-14T01:48:51;11.80;99.90
15906;DHT22;8051;50.820;4.884;2023-05-14T01:51:19;11.70;99.90
15906;DHT22;8051;50.820;4.884;2023-05-14T01:53:47;11.70;99.90
15906;DHT22;8051;50.820;4.884;2023-05-14T01:56:15;11.60;99.90
15906;DHT22;8051;50.820;4.884;2023-05-14T01:58:42;11.60;99.90
15906;DHT22;8051;50.820;4.884;2023-05-14T02:01:09;11.60;99.90
15906;DHT22;8051;50.820;4.884;2023-05-14T02:03:37;11.50;99.90
15906;DHT22;8051;50.820;4.884;2023-05-14T02:06:05;11.50;99.90
15906;DHT22;8051;50.820;4.884;2023-05-14T02:08:32;11.40;99.90
15906;DHT22;8051;50.820;4.884;2023-05-14T02:11:01;11.40;99.90
15906;DHT22;8051;50.820;4.884;2023-05-14T02:13:28;11.40;99.90
15906;DHT22;8051;50.820;4.884;2023-05-14T02:15:56;11.30;99.90
15906;DHT22;8051;50.820;4.884;2023-05-14T02:18:23;11.30;99.90
15906;DHT22;8051;50.820;4.884;2023-05-14T02:20:50;11.30;99.90
15906;DHT22;8051;50.820;4.884;2023-05-14T02:23:18;11.30;99.90
15906;DHT22;8051;50.820;4.884;2023-05-14T02:25:45;11.30;99.90
15906;DHT22;8051;50.820;4.884;2023-05-14T02:28:14;11.30;99.90
15906;DHT22;8051;50.820;4.884;2023-05-14T02:30:42;11.30;99.90
15906;DHT22;8051;50.820;4.884;2023-05-14T02:33:10;11.30;99.90
15906;DHT22;8051;50.820;4.884;2023-05-14T02:35:37;11.30;99.90
15906;DHT22;8051;50.820;4.884;2023-05-14T02:38:04;11.30;99.90
15906;DHT22;8051;50.820;4.884;2023-05-14T02:40:32;11.30;99.90
15906;DHT22;8051;50.820;4.884;2023-05-14T02:42:59;11.30;99.90
15906;DHT22;8051;50.820;4.884;2023-05-14T02:45:28;11.30;99.90
15906;DHT22;8051;50.820;4.884;2023-05-14T02:47:55;11.30;99.90
15906;DHT22;8051;50.820;4.884;2023-05-14T02:50:23;11.20;99.90
15906;DHT22;8051;50.820;4.884;2023-05-14T02:52:50;11.20;99.90
15906;DHT22;8051;50.820;4.884;2023-05-14T02:55:18;11.20;99.90
15906;DHT22;8051;50.820;4.884;2023-05-14T02:57:45;11.20;99.90
15906;DHT22;8051;50.820;4.884;2023-05-14T03:00:13;11.20;99.90
15906;DHT22;8051;50.820;4.884;2023-05-14T03:02:42;11.20;99.90
15906;DHT22;8051;50.820;4.884;2023-05-14T03:05:10;11.20;99.90
15906;DHT22;8051;50.820;4.884;2023-05-14T03:07:37;11.20;99.90
15906;DHT22;8051;50.820;4.884;2023-05-14T03:10:06;11.20;99.90
15906;DHT22;8051;50.820;4.884;2023-05-14T03:12:33;11.20;99.90
15906;DHT22;8051;50.820;4.884;2023-05-14T03:15:01;11.20;99.90
15906;DHT22;8051;50.820;4.884;2023-05-14T03:17:28;11.20;99.90
15906;DHT22;8051;50.820;4.884;2023-05-14T03:19:57;11.20;99.90
15906;DHT22;8051;50.820;4.884;2023-05-14T03:22:25;11.20;99.90
15906;DHT22;8051;50.820;4.884;2023-05-14T03:24:53;11.20;99.90
15906;DHT22;8051;50.820;4.884;2023-05-14T03:27:20;11.20;99.90
15906;DHT22;8051;50.820;4.884;2023-05-14T03:29:47;11.20;99.90
15906;DHT22;8051;50.820;4.884;2023-05-14T03:32:16;11.20;99.90
15906;DHT22;8051;50.820;4.884;2023-05-14T03:34:43;11.20;99.90
15906;DHT22;8051;50.820;4.884;2023-05-14T03:37:12;11.30;99.90
15906;DHT22;8051;50.820;4.884;2023-05-14T03:39:40;11.20;99.90
15906;DHT22;8051;50.820;4.884;2023-05-14T03:42:07;11.20;99.90
15906;DHT22;8051;50.820;4.884;2023-05-14T03:44:34;11.20;99.90
15906;DHT22;8051;50.820;4.884;2023-05-14T03:47:02;11.20;99.90
15906;DHT22;8051;50.820;4.884;2023-05-14T03:49:30;11.20;99.90
15906;DHT22;8051;50.820;4.884;2023-05-14T03:51:57;11.20;99.90
15906;DHT22;8051;50.820;4.884;2023-05-14T03:54:26;11.20;99.90
15906;DHT22;8051;50.820;4.884;2023-05-14T03:56:54;11.20;99.90
15906;DHT22;8051;50.820;4.884;2023-05-14T03:59:21;11.20;99.90
15906;DHT22;8051;50.820;4.884;2023-05-14T04:01:49;11.20;99.90
15906;DHT22;8051;50.820;4.884;2023-05-14T04:04:17;11.20;99.90
15906;DHT22;8051;50.820;4.884;2023-05-14T04:06:44;11.20;99.90
15906;DHT22;8051;50.820;4.884;2023-05-14T04:09:11;11.20;99.90
15906;DHT22;8051;50.820;4.884;2023-05-14T04:11:40;11.20;99.90
15906;DHT22;8051;50.820;4.884;2023-05-14T04:14:08;11.20;99.90
15906;DHT22;8051;50.820;4.884;2023-05-14T04:16:36;11.20;99.90
15906;DHT22;8051;50.820;4.884;2023-05-14T04:19:03;11.20;99.90
15906;DHT22;8051;50.820;4.884;2023-05-14T04:21:30;11.10;99.90
15906;DHT22;8051;50.820;4.884;2023-05-14T04:23:58;11.20;99.90
15906;DHT22;8051;50.820;4.884;2023-05-14T04:26:26;11.20;99.90
15906;DHT22;8051;50.820;4.884;2023-05-14T04:28:54;11.30;99.90
15906;DHT22;8051;50.820;4.884;2023-05-14T04:31:24;11.20;99.90
15906;DHT22;8051;50.820;4.884;2023-05-14T04:34:05;11.20;99.90
15906;DHT22;8051;50.820;4.884;2023-05-14T04:36:33;11.20;99.90
15906;DHT22;8051;50.820;4.884;2023-05-14T04:39:00;11.20;99.90
15906;DHT22;8051;50.820;4.884;2023-05-14T04:41:28;11.20;99.90
15906;DHT22;8051;50.820;4.884;2023-05-14T04:43:59;11.20;99.90
15906;DHT22;8051;50.820;4.884;2023-05-14T04:46:26;11.30;99.90
15906;DHT22;8051;50.820;4.884;2023-05-14T04:48:54;11.30;99.90
15906;DHT22;8051;50.820;4.884;2023-05-14T04:51:21;11.30;99.90
15906;DHT22;8051;50.820;4.884;2023-05-14T04:53:49;11.20;99.90
15906;DHT22;8051;50.820;4.884;2023-05-14T04:56:16;11.20;99.90
15906;DHT22;8051;50.820;4.884;2023-05-14T04:58:44;11.30;99.90
15906;DHT22;8051;50.820;4.884;2023-05-14T05:01:13;11.20;99.90
15906;DHT22;8051;50.820;4.884;2023-05-14T05:03:40;11.30;99.90
15906;DHT22;8051;50.820;4.884;2023-05-14T05:06:08;11.30;99.90
15906;DHT22;8051;50.820;4.884;2023-05-14T05:08:36;11.30;99.90
15906;DHT22;8051;50.820;4.884;2023-05-14T05:11:03;11.40;99.90
15906;DHT22;8051;50.820;4.884;2023-05-14T05:13:31;11.50;99.90
15906;DHT22;8051;50.820;4.884;2023-05-14T05:15:58;11.60;99.90
15906;DHT22;8051;50.820;4.884;2023-05-14T05:18:27;11.60;99.90
15906;DHT22;8051;50.820;4.884;2023-05-14T05:20:55;11.70;99.90
15906;DHT22;8051;50.820;4.884;2023-05-14T05:23:23;11.70;99.90
15906;DHT22;8051;50.820;4.884;2023-05-14T05:25:50;11.80;99.90
15906;DHT22;8051;50.820;4.884;2023-05-14T05:28:18;11.80;99.90
15906;DHT22;8051;50.820;4.884;2023-05-14T05:30:45;11.90;99.90
15906;DHT22;8051;50.820;4.884;2023-05-14T05:33:13;11.90;99.90
15906;DHT22;8051;50.820;4.884;2023-05-14T05:35:42;11.90;99.90
15906;DHT22;8051;50.820;4.884;2023-05-14T05:38:09;12.00;99.90
15906;DHT22;8051;50.820;4.884;2023-05-14T05:40:37;12.10;99.90
15906;DHT22;8051;50.820;4.884;2023-05-14T05:43:04;12.10;99.90
15906;DHT22;8051;50.820;4.884;2023-05-14T05:45:32;12.10;99.90
15906;DHT22;8051;50.820;4.884;2023-05-14T05:47:59;12.10;99.90
15906;DHT22;8051;50.820;4.884;2023-05-14T05:50:27;12.30;99.90
15906;DHT22;8051;50.820;4.884;2023-05-14T05:52:56;12.40;99.90
15906;DHT22;8051;50.820;4.884;2023-05-14T05:55:24;12.40;99.90
15906;DHT22;8051;50.820;4.884;2023-05-14T05:57:51;12.50;99.90
15906;DHT22;8051;50.820;4.884;2023-05-14T06:00:19;12.50;99.90
15906;DHT22;8051;50.820;4.884;2023-05-14T06:02:47;12.60;99.90
15906;DHT22;8051;50.820;4.884;2023-05-14T06:05:14;12.50;99.90
15906;DHT22;8051;50.820;4.884;2023-05-14T06:07:42;12.50;99.90
15906;DHT22;8051;50.820;4.884;2023-05-14T06:10:11;12.70;99.90
15906;DHT22;8051;50.820;4.884;2023-05-14T06:12:38;12.90;99.90
15906;DHT22;8051;50.820;4.884;2023-05-14T06:15:07;13.00;99.90
15906;DHT22;8051;50.820;4.884;2023-05-14T06:17:34;13.20;99.90
15906;DHT22;8051;50.820;4.884;2023-05-14T06:20:01;13.20;99.90
15906;DHT22;8051;50.820;4.884;2023-05-14T06:22:30;13.30;99.90
15906;DHT22;8051;50.820;4.884;2023-05-14T06:24:57;13.40;99.90
15906;DHT22;8051;50.820;4.884;2023-05-14T06:27:26;13.40;99.90
15906;DHT22;8051;50.820;4.884;2023-05-14T06:29:54;13.20;99.90
15906;DHT22;8051;50.820;4.884;2023-05-14T06:32:21;13.20;99.90
15906;DHT22;8051;50.820;4.884;2023-05-14T06:34:48;13.30;99.90
15906;DHT22;8051;50.820;4.884;2023-05-14T06:37:16;13.30;99.90
15906;DHT22;8051;50.820;4.884;2023-05-14T06:39:43;13.20;99.90
15906;DHT22;8051;50.820;4.884;2023-05-14T06:42:15;13.20;99.90
15906;DHT22;8051;50.820;4.884;2023-05-14T06:44:44;12.80;99.90
15906;DHT22;8051;50.820;4.884;2023-05-14T06:47:11;12.70;99.90
15906;DHT22;8051;50.820;4.884;2023-05-14T06:49:39;12.60;99.90
15906;DHT22;8051;50.820;4.884;2023-05-14T06:52:06;12.60;99.90
15906;DHT22;8051;50.820;4.884;2023-05-14T06:54:34;12.60;99.90
15906;DHT22;8051;50.820;4.884;2023-05-14T06:57:01;12.60;99.90
15906;DHT22;8051;50.820;4.884;2023-05-14T06:59:29;12.70;99.90
15906;DHT22;8051;50.820;4.884;2023-05-14T07:01:57;12.80;99.90
15906;DHT22;8051;50.820;4.884;2023-05-14T07:04:26;12.90;99.90
15906;DHT22;8051;50.820;4.884;2023-05-14T07:06:53;13.10;99.90
15906;DHT22;8051;50.820;4.884;2023-05-14T07:09:21;13.20;99.90
15906;DHT22;8051;50.820;4.884;2023-05-14T07:11:48;13.20;99.90
15906;DHT22;8051;50.820;4.884;2023-05-14T07:14:16;13.30;99.90
15906;DHT22;8051;50.820;4.884;2023-05-14T07:16:43;13.50;99.90
15906;DHT22;8051;50.820;4.884;2023-05-14T07:19:13;13.60;99.90
15906;DHT22;8051;50.820;4.884;2023-05-14T07:21:40;13.70;99.90
15906;DHT22;8051;50.820;4.884;2023-05-14T07:24:08;13.70;99.90
15906;DHT22;8051;50.820;4.884;2023-05-14T07:26:35;13.70;99.90
15906;DHT22;8051;50.820;4.884;2023-05-14T07:29:04;13.60;99.90
15906;DHT22;8051;50.820;4.884;2023-05-14T07:31:31;13.70;99.90
15906;DHT22;8051;50.820;4.884;2023-05-14T07:33:58;13.70;99.90
15906;DHT22;8051;50.820;4.884;2023-05-14T07:36:27;13.70;99.90
15906;DHT22;8051;50.820;4.884;2023-05-14T07:38:55;13.80;99.90
15906;DHT22;8051;50.820;4.884;2023-05-14T07:41:23;13.80;99.90
15906;DHT22;8051;50.820;4.884;2023-05-14T07:43:50;13.60;99.90
15906;DHT22;8051;50.820;4.884;2023-05-14T07:46:18;13.70;99.90
15906;DHT22;8051;50.820;4.884;2023-05-14T07:48:45;13.80;99.90
15906;DHT22;8051;50.820;4.884;2023-05-14T07:51:13;13.90;99.90
15906;DHT22;8051;50.820;4.884;2023-05-14T07:53:41;13.90;99.90
15906;DHT22;8051;50.820;4.884;2023-05-14T07:56:09;14.10;99.90
15906;DHT22;8051;50.820;4.884;2023-05-14T07:58:36;14.30;99.90
15906;DHT22;8051;50.820;4.884;2023-05-14T08:01:04;14.60;99.90
15906;DHT22;8051;50.820;4.884;2023-05-14T08:03:33;14.40;99.90
15906;DHT22;8051;50.820;4.884;2023-05-14T08:06:01;14.50;99.90
15906;DHT22;8051;50.820;4.884;2023-05-14T08:08:28;14.70;99.90
15906;DHT22;8051;50.820;4.884;2023-05-14T08:10:57;14.70;99.90
15906;DHT22;8051;50.820;4.884;2023-05-14T08:13:25;14.60;99.90
15906;DHT22;8051;50.820;4.884;2023-05-14T08:15:53;14.40;99.90
15906;DHT22;8051;50.820;4.884;2023-05-14T08:18:21;14.60;99.90
15906;DHT22;8051;50.820;4.884;2023-05-14T08:20:49;14.90;99.90
15906;DHT22;8051;50.820;4.884;2023-05-14T08:23:16;15.30;99.90
15906;DHT22;8051;50.820;4.884;2023-05-14T08:25:44;15.60;99.90
15906;DHT22;8051;50.820;4.884;2023-05-14T08:28:12;16.00;99.90
15906;DHT22;8051;50.820;4.884;2023-05-14T08:30:40;16.20;99.90
15906;DHT22;8051;50.820;4.884;2023-05-14T08:33:07;16.40;99.90
15906;DHT22;8051;50.820;4.884;2023-05-14T08:35:35;16.40;99.90
15906;DHT22;8051;50.820;4.884;2023-05-14T08:38:02;16.20;99.90
15906;DHT22;8051;50.820;4.884;2023-05-14T08:40:30;16.50;99.90
15906;DHT22;8051;50.820;4.884;2023-05-14T08:42:58;16.50;99.90
15906;DHT22;8051;50.820;4.884;2023-05-14T08:45:29;16.30;99.90
15906;DHT22;8051;50.820;4.884;2023-05-14T08:47:59;16.30;99.90
15906;DHT22;8051;50.820;4.884;2023-05-14T08:50:27;16.10;99.90
15906;DHT22;8051;50.820;4.884;2023-05-14T08:52:55;15.80;99.90
15906;DHT22;8051;50.820;4.884;2023-05-14T08:55:24;15.90;99.90
15906;DHT22;8051;50.820;4.884;2023-05-14T08:57:53;16.30;99.90
15906;DHT22;8051;50.820;4.884;2023-05-14T09:00:20;16.30;99.90
15906;DHT22;8051;50.820;4.884;2023-05-14T09:02:50;15.90;99.90
15906;DHT22;8051;50.820;4.884;2023-05-14T09:05:18;15.90;99.90
15906;DHT22;8051;50.820;4.884;2023-05-14T09:07:46;16.00;99.90
15906;DHT22;8051;50.820;4.884;2023-05-14T09:10:14;16.00;99.90
15906;DHT22;8051;50.820;4.884;2023-05-14T09:12:42;16.00;99.90
15906;DHT22;8051;50.820;4.884;2023-05-14T09:15:10;15.80;99.90
15906;DHT22;8051;50.820;4.884;2023-05-14T09:17:38;15.80;99.90
15906;DHT22;8051;50.820;4.884;2023-05-14T09:20:08;15.70;99.90
15906;DHT22;8051;50.820;4.884;2023-05-14T09:22:38;15.50;99.90
15906;DHT22;8051;50.820;4.884;2023-05-14T09:25:07;15.50;99.90
15906;DHT22;8051;50.820;4.884;2023-05-14T09:27:37;15.60;99.90
15906;DHT22;8051;50.820;4.884;2023-05-14T09:30:06;15.80;99.90
15906;DHT22;8051;50.820;4.884;2023-05-14T09:32:38;15.90;99.90
15906;DHT22;8051;50.820;4.884;2023-05-14T09:35:11;15.90;99.90
15906;DHT22;8051;50.820;4.884;2023-05-14T09:37:41;16.30;99.90
15906;DHT22;8051;50.820;4.884;2023-05-14T09:40:09;16.40;99.90
15906;DHT22;8051;50.820;4.884;2023-05-14T09:42:37;16.50;99.90
15906;DHT22;8051;50.820;4.884;2023-05-14T09:45:06;16.60;99.90
15906;DHT22;8051;50.820;4.884;2023-05-14T09:47:34;16.70;99.90
15906;DHT22;8051;50.820;4.884;2023-05-14T09:50:02;16.70;99.90
15906;DHT22;8051;50.820;4.884;2023-05-14T09:52:31;16.90;99.90
15906;DHT22;8051;50.820;4.884;2023-05-14T09:54:59;16.80;99.90
15906;DHT22;8051;50.820;4.884;2023-05-14T09:57:27;16.90;99.90
15906;DHT22;8051;50.820;4.884;2023-05-14T09:59:54;16.80;99.90
15906;DHT22;8051;50.820;4.884;2023-05-14T10:02:23;16.70;99.90
15906;DHT22;8051;50.820;4.884;2023-05-14T10:04:53;17.00;99.90
15906;DHT22;8051;50.820;4.884;2023-05-14T10:07:28;17.30;99.90
15906;DHT22;8051;50.820;4.884;2023-05-14T10:10:01;17.30;99.90
15906;DHT22;8051;50.820;4.884;2023-05-14T10:12:32;17.40;99.90
15906;DHT22;8051;50.820;4.884;2023-05-14T10:15:03;17.40;99.90
15906;DHT22;8051;50.820;4.884;2023-05-14T10:17:34;17.50;99.90
15906;DHT22;8051;50.820;4.884;2023-05-14T10:20:03;17.70;99.90
15906;DHT22;8051;50.820;4.884;2023-05-14T10:22:34;17.80;99.90
15906;DHT22;8051;50.820;4.884;2023-05-14T10:25:04;17.90;99.90
15906;DHT22;8051;50.820;4.884;2023-05-14T10:27:31;17.60;99.90
15906;DHT22;8051;50.820;4.884;2023-05-14T10:29:59;17.70;99.90
15906;DHT22;8051;50.820;4.884;2023-05-14T10:32:26;17.80;99.90
15906;DHT22;8051;50.820;4.884;2023-05-14T10:34:57;17.90;99.90
15906;DHT22;8051;50.820;4.884;2023-05-14T10:37:29;17.90;99.90
15906;DHT22;8051;50.820;4.884;2023-05-14T10:39:58;18.10;99.90
15906;DHT22;8051;50.820;4.884;2023-05-14T10:42:31;18.20;99.90
15906;DHT22;8051;50.820;4.884;2023-05-14T10:45:02;18.10;99.90
15906;DHT22;8051;50.820;4.884;2023-05-14T10:47:32;18.20;99.90
15906;DHT22;8051;50.820;4.884;2023-05-14T10:50:01;18.30;99.90
15906;DHT22;8051;50.820;4.884;2023-05-14T10:52:29;18.20;99.90
15906;DHT22;8051;50.820;4.884;2023-05-14T10:54:58;18.30;99.90
15906;DHT22;8051;50.820;4.884;2023-05-14T10:57:28;18.40;99.90
15906;DHT22;8051;50.820;4.884;2023-05-14T10:59:57;18.80;99.90
15906;DHT22;8051;50.820;4.884;2023-05-14T11:02:26;18.60;99.90
15906;DHT22;8051;50.820;4.884;2023-05-14T11:04:55;18.60;99.90
15906;DHT22;8051;50.820;4.884;2023-05-14T11:07:27;18.70;99.90
15906;DHT22;8051;50.820;4.884;2023-05-14T11:10:00;19.00;99.90
15906;DHT22;8051;50.820;4.884;2023-05-14T11:12:29;19.30;99.90
15906;DHT22;8051;50.820;4.884;2023-05-14T11:14:58;19.00;99.90
15906;DHT22;8051;50.820;4.884;2023-05-14T11:17:28;19.00;99.90
15906;DHT22;8051;50.820;4.884;2023-05-14T11:19:56;18.80;99.90
15906;DHT22;8051;50.820;4.884;2023-05-14T11:22:24;19.00;99.90
15906;DHT22;8051;50.820;4.884;2023-05-14T11:24:52;19.10;99.90
15906;DHT22;8051;50.820;4.884;2023-05-14T11:27:20;19.40;99.90
15906;DHT22;8051;50.820;4.884;2023-05-14T11:29:50;19.30;99.90
15906;DHT22;8051;50.820;4.884;2023-05-14T11:32:18;19.30;99.90
15906;DHT22;8051;50.820;4.884;2023-05-14T11:34:46;19.10;99.90
15906;DHT22;8051;50.820;4.884;2023-05-14T11:37:14;18.90;99.90
15906;DHT22;8051;50.820;4.884;2023-05-14T11:39:49;18.80;99.90
15906;DHT22;8051;50.820;4.884;2023-05-14T11:42:17;19.10;99.90
15906;DHT22;8051;50.820;4.884;2023-05-14T11:44:46;19.40;99.90
15906;DHT22;8051;50.820;4.884;2023-05-14T11:47:16;19.60;99.90
15906;DHT22;8051;50.820;4.884;2023-05-14T11:49:44;19.90;99.90
15906;DHT22;8051;50.820;4.884;2023-05-14T11:52:13;20.20;99.90
15906;DHT22;8051;50.820;4.884;2023-05-14T11:54:42;20.00;99.90
15906;DHT22;8051;50.820;4.884;2023-05-14T11:57:12;19.50;99.90
15906;DHT22;8051;50.820;4.884;2023-05-14T11:59:40;19.40;99.90
15906;DHT22;8051;50.820;4.884;2023-05-14T12:02:09;19.40;99.90
15906;DHT22;8051;50.820;4.884;2023-05-14T12:04:38;19.60;99.90
15906;DHT22;8051;50.820;4.884;2023-05-14T12:07:11;19.70;99.90
15906;DHT22;8051;50.820;4.884;2023-05-14T12:09:41;19.60;99.90
15906;DHT22;8051;50.820;4.884;2023-05-14T12:12:14;19.40;99.90
15906;DHT22;8051;50.820;4.884;2023-05-14T12:14:42;19.70;99.90
15906;DHT22;8051;50.820;4.884;2023-05-14T12:17:14;20.00;99.90
15906;DHT22;8051;50.820;4.884;2023-05-14T12:19:45;20.20;99.90
15906;DHT22;8051;50.820;4.884;2023-05-14T12:22:16;20.00;99.90
15906;DHT22;8051;50.820;4.884;2023-05-14T12:24:52;19.90;99.90
15906;DHT22;8051;50.820;4.884;2023-05-14T12:27:21;20.20;99.90
15906;DHT22;8051;50.820;4.884;2023-05-14T12:29:50;20.30;99.90
15906;DHT22;8051;50.820;4.884;2023-05-14T12:32:25;20.60;99.90
15906;DHT22;8051;50.820;4.884;2023-05-14T12:34:54;21.00;99.90
15906;DHT22;8051;50.820;4.884;2023-05-14T12:37:21;20.90;99.90
15906;DHT22;8051;50.820;4.884;2023-05-14T12:39:48;20.70;99.90
15906;DHT22;8051;50.820;4.884;2023-05-14T12:42:16;20.50;99.90
15906;DHT22;8051;50.820;4.884;2023-05-14T12:44:43;20.60;99.90
15906;DHT22;8051;50.820;4.884;2023-05-14T12:47:11;20.70;99.90
15906;DHT22;8051;50.820;4.884;2023-05-14T12:49:38;20.70;99.90
15906;DHT22;8051;50.820;4.884;2023-05-14T12:52:07;20.90;99.90
15906;DHT22;8051;50.820;4.884;2023-05-14T12:54:35;21.00;99.90
15906;DHT22;8051;50.820;4.884;2023-05-14T12:57:05;21.00;99.90
15906;DHT22;8051;50.820;4.884;2023-05-14T12:59:33;21.10;99.90
15906;DHT22;8051;50.820;4.884;2023-05-14T13:02:00;21.30;99.90
15906;DHT22;8051;50.820;4.884;2023-05-14T13:04:28;21.40;99.90
15906;DHT22;8051;50.820;4.884;2023-05-14T13:06:55;21.50;99.90
15906;DHT22;8051;50.820;4.884;2023-05-14T13:09:24;21.80;99.90
15906;DHT22;8051;50.820;4.884;2023-05-14T13:11:52;21.90;99.90
15906;DHT22;8051;50.820;4.884;2023-05-14T13:14:20;21.80;99.90
15906;DHT22;8051;50.820;4.884;2023-05-14T13:16:47;21.50;99.90
15906;DHT22;8051;50.820;4.884;2023-05-14T13:19:15;21.40;99.90
15906;DHT22;8051;50.820;4.884;2023-05-14T13:21:42;21.40;99.90
15906;DHT22;8051;50.820;4.884;2023-05-14T13:24:09;21.50;99.90
15906;DHT22;8051;50.820;4.884;2023-05-14T13:26:38;21.50;99.90
15906;DHT22;8051;50.820;4.884;2023-05-14T13:29:06;21.60;99.90
15906;DHT22;8051;50.820;4.884;2023-05-14T13:31:33;21.50;99.90
15906;DHT22;8051;50.820;4.884;2023-05-14T13:34:00;21.60;99.90
15906;DHT22;8051;50.820;4.884;2023-05-14T13:36:28;21.50;99.90
15906;DHT22;8051;50.820;4.884;2023-05-14T13:38:57;21.60;99.90
15906;DHT22;8051;50.820;4.884;2023-05-14T13:41:25;21.80;99.90
15906;DHT22;8051;50.820;4.884;2023-05-14T13:43:53;21.80;99.90
15906;DHT22;8051;50.820;4.884;2023-05-14T13:46:21;21.70;99.90
15906;DHT22;8051;50.820;4.884;2023-05-14T13:48:48;21.70;99.90
15906;DHT22;8051;50.820;4.884;2023-05-14T13:51:16;21.50;99.90
15906;DHT22;8051;50.820;4.884;2023-05-14T13:53:43;21.60;99.90
15906;DHT22;8051;50.820;4.884;2023-05-14T13:56:11;21.80;99.90
15906;DHT22;8051;50.820;4.884;2023-05-14T13:58:38;22.20;99.90
15906;DHT22;8051;50.820;4.884;2023-05-14T14:01:07;22.50;99.90
15906;DHT22;8051;50.820;4.884;2023-05-14T14:03:35;22.60;99.90
15906;DHT22;8051;50.820;4.884;2023-05-14T14:06:02;22.60;99.90
15906;DHT22;8051;50.820;4.884;2023-05-14T14:08:30;22.50;99.90
15906;DHT22;8051;50.820;4.884;2023-05-14T14:10:57;22.40;99.90
15906;DHT22;8051;50.820;4.884;2023-05-14T14:13:25;22.60;99.90
15906;DHT22;8051;50.820;4.884;2023-05-14T14:15:52;22.70;99.90
15906;DHT22;8051;50.820;4.884;2023-05-14T14:18:21;22.90;99.90
15906;DHT22;8051;50.820;4.884;2023-05-14T14:20:49;23.00;99.90
15906;DHT22;8051;50.820;4.884;2023-05-14T14:23:16;22.80;99.90
15906;DHT22;8051;50.820;4.884;2023-05-14T14:25:44;22.80;99.90
15906;DHT22;8051;50.820;4.884;2023-05-14T14:28:11;22.90;99.90
15906;DHT22;8051;50.820;4.884;2023-05-14T14:30:39;23.10;99.90
15906;DHT22;8051;50.820;4.884;2023-05-14T14:33:06;23.00;99.90
15906;DHT22;8051;50.820;4.884;2023-05-14T14:35:35;22.90;99.90
15906;DHT22;8051;50.820;4.884;2023-05-14T14:38:03;22.60;99.90
15906;DHT22;8051;50.820;4.884;2023-05-14T14:40:32;22.60;99.90
15906;DHT22;8051;50.820;4.884;2023-05-14T14:42:59;22.70;99.90
15906;DHT22;8051;50.820;4.884;2023-05-14T14:45:28;22.70;99.90
15906;DHT22;8051;50.820;4.884;2023-05-14T14:48:23;22.50;99.90
15906;DHT22;8051;50.820;4.884;2023-05-14T14:50:52;22.30;99.90
15906;DHT22;8051;50.820;4.884;2023-05-14T14:53:20;22.30;99.90
15906;DHT22;8051;50.820;4.884;2023-05-14T14:55:48;22.20;99.90
15906;DHT22;8051;50.820;4.884;2023-05-14T14:58:16;22.10;99.90
15906;DHT22;8051;50.820;4.884;2023-05-14T15:00:44;22.40;99.90
15906;DHT22;8051;50.820;4.884;2023-05-14T15:03:11;22.30;99.90
15906;DHT22;8051;50.820;4.884;2023-05-14T15:05:39;22.20;99.90
15906;DHT22;8051;50.820;4.884;2023-05-14T15:08:08;22.40;99.90
15906;DHT22;8051;50.820;4.884;2023-05-14T15:10:36;22.20;99.90
15906;DHT22;8051;50.820;4.884;2023-05-14T15:13:05;22.10;99.90
15906;DHT22;8051;50.820;4.884;2023-05-14T15:15:32;21.90;99.90
15906;DHT22;8051;50.820;4.884;2023-05-14T15:18:00;21.80;99.90
15906;DHT22;8051;50.820;4.884;2023-05-14T15:20:28;21.80;99.90
15906;DHT22;8051;50.820;4.884;2023-05-14T15:22:55;21.70;99.90
15906;DHT22;8051;50.820;4.884;2023-05-14T15:25:25;21.70;99.90
15906;DHT22;8051;50.820;4.884;2023-05-14T15:27:53;21.60;99.90
15906;DHT22;8051;50.820;4.884;2023-05-14T15:30:20;21.50;99.90
15906;DHT22;8051;50.820;4.884;2023-05-14T15:32:48;21.40;99.90
15906;DHT22;8051;50.820;4.884;2023-05-14T15:35:15;21.40;99.90
15906;DHT22;8051;50.820;4.884;2023-05-14T15:37:43;21.60;99.90
15906;DHT22;8051;50.820;4.884;2023-05-14T15:40:11;21.40;99.90
15906;DHT22;8051;50.820;4.884;2023-05-14T15:42:41;21.40;99.90
15906;DHT22;8051;50.820;4.884;2023-05-14T15:45:10;21.40;99.90
15906;DHT22;8051;50.820;4.884;2023-05-14T15:47:38;21.50;99.90
15906;DHT22;8051;50.820;4.884;2023-05-14T15:50:07;21.70;99.90
15906;DHT22;8051;50.820;4.884;2023-05-14T15:52:35;21.80;99.90